Observations for NANTES CHATEAU, France (LFRS)

LFRS 252200Z AUTO 36005KT 330V040 9999 BKN023 BKN041 16/14 Q1021 NOSIG  
LFRS 252130Z AUTO 35004KT 320V020 9999 SCT023 OVC039 16/14 Q1021 NOSIG  
LFRS 252100Z AUTO 36004KT 320V050 9999 OVC037 16/15 Q1021 NOSIG 
LFRS 252030Z AUTO 35003KT 320V030 9999 OVC035 16/15 Q1021 NOSIG 
LFRS 252000Z AUTO VRB03KT 9999 FEW013 BKN038 16/15 Q1021 NOSIG  
LFRS 251930Z AUTO 34003KT 310V040 CAVOK 16/15 Q1021 NOSIG   
LFRS 251900Z AUTO 32004KT 9999 FEW013 SCT052 BKN064 16/15 Q1021 NOSIG   
LFRS 251830Z AUTO 30005KT 270V330 9999 SCT010 SCT030 BKN045 16/15 Q1021 NOSIG   
LFRS 251800Z AUTO 31007KT 9999 FEW041/// OVC058/// ///TCU 17/15 Q1020 BECMG SCT016 BKN025   
LFRS 251730Z AUTO 29006KT 260V320 9999 FEW011 BKN018 BKN024 17/16 Q1020 NOSIG   
LFRS 251700Z AUTO 30006KT 9999 FEW013 BKN019 BKN029 18/16 Q1020 NOSIG   
LFRS 251630Z AUTO 31007KT 9999 SCT015 SCT025 BKN031 18/16 Q1020 NOSIG   
LFRS 251600Z AUTO 00000KT 9999 FEW016/// SCT027/// BKN054/// ///TCU 18/16 Q1019 BECMG SCT006 BKN016 
LFRS 251530Z AUTO VRB04KT 9999 1800 -RA BKN017 BKN022 OVC031 18/16 Q1019 NOSIG  
LFRS 251500Z AUTO 36004KT 310V040 9999 BKN024 BKN044 OVC060 19/16 Q1019 NOSIG   
LFRS 251430Z AUTO VRB03KT 9999 SCT006 BKN016 BKN023 18/16 Q1019 NOSIG   
LFRS 251400Z AUTO VRB02KT 6000 -RA FEW005 SCT014 BKN022 17/16 Q1019 TEMPO 3000 -RA OVC005   
LFRS 251330Z AUTO 36004KT 330V040 3100 RA BR SCT007 BKN011 OVC018 17/16 Q1019 BECMG 9999 NSW SCT006 BKN016  
LFRS 251300Z AUTO 03005KT 330V050 9999 SCT010 BKN015 OVC024 19/16 Q1019 TEMPO OVC005
LFRS 251230Z AUTO VRB03KT 9999 BKN011 BKN018 OVC024 18/16 Q1019 BECMG SCT006 BKN016 
LFRS 251200Z AUTO 35003KT 310V050 9999 BKN011 OVC020 19/16 Q1019 TEMPO OVC005   
LFRS 251130Z AUTO 32003KT 280V010 9999 SCT008 BKN015 OVC054 18/16 Q1019 TEMPO OVC005
LFRS 251100Z AUTO VRB02KT 9999 SCT005 BKN009 OVC017 17/15 Q1019 BECMG BKN016
LFRS 251030Z AUTO 21004KT 180V250 9000 OVC005 16/15 Q1019 BECMG BKN016  
LFRS 251000Z AUTO 21004KT 180V250 5000 1100 R03/P2000 R21/P2000 BR BKN005 OVC010 16/15 Q1019 BECMG BKN016   
LFRS 250930Z AUTO 18004KT 150V210 5000 -RADZ BR OVC010 16/15 Q1018 BECMG BKN016 
LFRS 250900Z AUTO 17004KT 9999 FEW006 OVC012 16/15 Q1018 BECMG BKN016   
LFRS 250830Z AUTO 21003KT 150V240 9999 OVC011 16/15 Q1018 BECMG BKN016  
LFRS 250800Z AUTO 20004KT 9999 OVC007 15/15 Q1018 TEMPO 4000 SHRA BKN007 BKN030TCU  
LFRS 250730Z AUTO 21004KT 9999 BKN012 OVC018 15/14 Q1018 TEMPO 4000 SHRA BKN007 BKN030TCU   
LFRS 250700Z AUTO VRB02KT 7000 FEW013 OVC023 15/14 Q1018 TEMPO 4000 SHRA BKN007 BKN030TCU   
LFRS 250630Z AUTO 18004KT 9999 FEW016 BKN025 BKN030 15/14 Q1018 TEMPO 4000 SHRA BKN007 BKN030TCU
LFRS 250600Z AUTO VRB02KT 9999 3400 -DZ BKN032 OVC039 15/14 Q1017 TEMPO 4000 SHRA BKN007 BKN030TCU  
LFRS 250530Z AUTO 21003KT 9999 FEW010/// OVC032/// ///TCU 15/14 Q1017 TEMPO 4000 SHRA BKN007 BKN030TCU  
LFRS 250500Z AUTO 22002KT 9999 BKN034/// BKN062/// OVC098/// ///TCU 15/14 Q1017 TEMPO 4000 -RA BKN004   
LFRS 250430Z AUTO VRB02KT 9999 -RA ///CB 15/14 Q1017 TEMPO 4000 -RA BKN004  
LFRS 250400Z AUTO VRB02KT 9000 -RA FEW009/// BKN056/// BKN066/// ///CB 15/14 Q1017 TEMPO 4000 -RA BKN004
LFRS 250330Z AUTO 21004KT 6000 RA SCT009/// SCT023/// BKN039/// ///TCU 16/15 Q1018 TEMPO 4000 -RA BKN004
LFRS 250300Z AUTO 23002KT 9999 BKN021/// BKN035/// BKN052/// ///TCU 16/15 Q1017 TEMPO 4000 -RA BKN004   
LFRS 250230Z AUTO VRB02KT 9999 FEW002/// BKN021/// BKN036/// ///TCU 16/15 Q1017 TEMPO 4000 -RA BKN004   
LFRS 250200Z AUTO 26003KT 9999 FEW002/// BKN013/// OVC018/// ///TCU 16/15 Q1018 TEMPO 4000 -RA BKN004   
LFRS 250130Z AUTO VRB02KT 9000 SCT004/// SCT010/// BKN018/// ///TCU 16/15 Q1018 TEMPO 4000 -RA BKN004   
LFRS 250100Z AUTO 20003KT 8000 BKN005/// BKN018/// OVC025/// ///TCU 16/15 Q1018 TEMPO 4000 RA   
LFRS 250030Z AUTO VRB03KT 9000 FEW003/// SCT030/// OVC100/// ///CB 16/15 Q1018 TEMPO 4000 RA BKN007 BKN040TCU   
LFRS 250000Z AUTO 01003KT 5000 RA BR ///CB 16/15 Q1018 TEMPO BKN007 BKN040TCU   
LFRS 242330Z AUTO VRB02KT 5000 -RA BR FEW013/// BKN068/// OVC100/// ///CB 16/15 Q1018 TEMPO RA BKN007 BKN040TCU 
LFRS 242300Z AUTO 24003KT 200V260 6000 RA BKN006/// BKN012/// BKN034/// ///CB 16/15 Q1019 NOSIG 
LFRS 242230Z AUTO VRB01KT 9999 BKN005/// BKN090/// OVC120/// ///TCU 16/15 Q1019 TEMPO RA BKN005 BKN030CB
LFRS 242200Z AUTO 30005KT 9999 FEW006/// OVC110/// ///CB 16/15 Q1019 BECMG NSC  
LFRS 242130Z AUTO 28004KT 260V330 9999 -RA ///CB 16/15 Q1018 BECMG NSC